Nearby METAR Reports

 

KBJC - Broomfield/Jeffc, Colorado, USA
Distance from station: NNW 11mi, 17km
Updated: Wed, 23-Sep-2020 2:59pm MDT
Partly cloudy
Partly cloudy
 Wind from S
Wind: S 6 mph , 9 km/h
Temperature: 84°F , 29°C
Dew Point: 30°F , -1°C
Humidity: 14%
Barometer: 30.15 inHg , 1021 hPa
Clouds: Partly cloudy
Visibility: 10 miles , 16 km
Cloud details: Partly cloudy 15000 ft
2020/09/23 20:59 KBJC 232059Z 19005KT 10SM SCT150 29/M01 A3015
KBKF - Buckley Angb/Den, Colorado, USA
Distance from station: E 16mi, 25km
Updated: Wed, 23-Sep-2020 2:58pm MDT
Few Clouds
Few Clouds
 Wind from varies
Wind: varies 6 mph , 9 km/h
Temperature: 82°F , 28°C
Dew Point: 25°F , -4°C
Humidity: 12%
Barometer: 30.16 inHg , 1021.3 hPa
Clouds: Few Clouds
Visibility: 10 miles , 16 km
Cloud details: Few Clouds 10000 ft
Few Clouds 22000 ft
2020/09/23 20:58 KBKF 232058Z VRB05KT 10SM FEW100 FEW220 28/M04 A3016 RMK AO2A SLP140 T02821039 58018
 
KAPA - Denver/Arapahoe, Colorado, USA
Distance from station: SE 16mi, 26km
Updated: Wed, 23-Sep-2020 2:53pm MDT
Few Clouds
Few Clouds
 Wind from varies
Wind: varies 6 mph , 9 km/h
Temperature: 81°F , 27°C
Dew Point: 27°F , -3°C
Humidity: 14%
Barometer: 30.17 inHg , 1021.7 hPa
Clouds: Few Clouds
Visibility: 10 miles , 16 km
Cloud details: Few Clouds 7000 ft
2020/09/23 20:53 KAPA 232053Z VRB05KT 10SM FEW070 27/M03 A3017 RMK AO2 SLP147 T02671033 58017
KEIK - Erie Muni, Colorado, USA
Distance from station: N 18mi, 29km
Updated: Wed, 23-Sep-2020 3:35pm MDT
Clear
Clear
 Wind from SE
Wind: SE 7 mph , 11 km/h
Temperature: 84°F , 29°C
Dew Point: 28°F , -2°C
Humidity: 13%
Barometer: 30.10 inHg , 1019.3 hPa
Clouds: Clear
Visibility: 10 miles , 16 km
2020/09/23 21:35 KEIK 232135Z AUTO 14006KT 10SM CLR 29/M02 A3010 RMK AO2 T02911025 PWINO
 
KBDU - Boulder Muni, Colorado, USA
Distance from station: NNW 22mi, 35km
Updated: Wed, 23-Sep-2020 3:30pm MDT
Clear
Clear
 Wind from E
Wind: E 5 mph , 7 km/h
Temperature: 81°F , 27°C
Dew Point: 34°F , 1°C
Humidity: 18%
Barometer: 30.11 inHg , 1019.6 hPa
Clouds: Clear
Visibility: 10 miles , 16 km
2020/09/23 21:30 KBDU 232130Z AUTO 10004KT 10SM CLR 27/01 A3011 RMK AO2
KDEN - Denver (dia), Colorado, USA
Distance from station: ENE 22mi, 35km
Updated: Wed, 23-Sep-2020 2:53pm MDT
Few Clouds
Few Clouds
 Wind from N
Wind: N 9 mph , 15 km/h
Temperature: 84°F , 29°C
Dew Point: 28°F , -2°C
Humidity: 13%
Barometer: 30.13 inHg , 1020.3 hPa
Clouds: Few Clouds
Visibility: 10 miles , 16 km
Cloud details: Few Clouds 9000 ft
Few Clouds 12000 ft
Few Clouds 22000 ft
2020/09/23 20:53 KDEN 232053Z 01008KT 10SM FEW090 FEW120 FEW220 29/M02 A3013 RMK AO2 SLP124 T02941017 58018
 
KFTG - Denver F. Range, Colorado, USA
Distance from station: E 26mi, 42km
Updated: Wed, 29-Jan-2020 9:55pm MST
NOT Current
Overcast
Overcast
 Wind from W
Wind: W 7 mph , 11 km/h
Temperature: 30°F , -1°C
Wind Chill: 23°F , -5°C
Dew Point: 28°F , -2°C
Humidity: 93%
Barometer: 30.06 inHg , 1017.9 hPa
Clouds: Overcast
Visibility: 10 miles , 16 km
Cloud details: Partly cloudy 1300 ft
Mostly cloudy 2300 ft
Overcast 6000 ft
2020/01/30 04:55 KFTG 300455Z AUTO 26006KT 10SM SCT013 BKN023 OVC060 M01/M02 A3006 RMK AO2 T10111023
KLMO - Longmont/Vbrand, Colorado, USA
Distance from station: NNW 29mi, 47km
Updated: Wed, 23-Sep-2020 3:35pm MDT
Clear
Clear
 Wind from ESE
Wind: ESE 5 mph , 7 km/h
Temperature: 86°F , 30°C
Dew Point: 32°F , 0°C
Humidity: 14%
Barometer: 30.11 inHg , 1019.6 hPa
Clouds: Clear
Visibility: 7 miles , 11 km
2020/09/23 21:35 KLMO 232135Z AUTO 11004KT 7SM CLR 30/00 A3011 RMK AO2 T02950001
 
K0CO - Berthoud Pass, Colorado, USA
Distance from station: W 39mi, 62km
Updated: Wed, 23-Sep-2020 3:35pm MDT
Partly cloudy
Partly cloudy
 
Temperature: 46°F , 8°C
Dew Point: 30°F , -1°C
Humidity: 53%
Barometer: 30.63 inHg , 1037.3 hPa
Clouds: Partly cloudy
Visibility: 10 miles , 16 km
Cloud details: Partly cloudy 7000 ft
Partly cloudy 8000 ft
2020/09/23 21:35 K0CO 232135Z AUTO 10SM SCT070 SCT080 08/M01 A3063 RMK AO2 PWINO
KMNH - Monument/Elbert, Colorado, USA
Distance from station: SSE 43mi, 68km
Updated: Wed, 23-Sep-2020 3:35pm MDT
Clear
Clear
 Wind from N
Wind: N 7 mph , 11 km/h
Temperature: 73°F , 23°C
Dew Point: 30°F , -1°C
Humidity: 20%
Barometer: 30.28 inHg , 1025.4 hPa
Clouds: Clear
Visibility: 10 miles , 16 km
2020/09/23 21:35 KMNH 232135Z AUTO 01006KT 10SM CLR 23/M01 A3028 RMK AO2
 
KFNL - Ft Collins/Lovel, Colorado, USA
Distance from station: N 48mi, 78km
Updated: Wed, 23-Sep-2020 2:56pm MDT
Clear
Clear
 Wind from SSW
Wind: SSW 9 mph , 15 km/h
Temperature: 86°F , 30°C
Dew Point: 34°F , 1°C
Humidity: 15%
Barometer: 30.10 inHg , 1019.3 hPa
Clouds: Clear
Visibility: 10 miles , 16 km
2020/09/23 20:56 KFNL 232056Z 21008KT 10SM CLR 30/01 A3010 RMK AO2 SLP127 T03000011 56017